sensor_id;sensor_type;location;lat;lon;timestamp;temperature;humidity
41262;DHT22;29629;52.532;13.352;2023-11-18T00:00:31;6.30;99.90
41262;DHT22;29629;52.532;13.352;2023-11-18T00:02:58;6.30;99.90
41262;DHT22;29629;52.532;13.352;2023-11-18T00:05:28;6.30;99.90
41262;DHT22;29629;52.532;13.352;2023-11-18T00:07:55;6.20;99.90
41262;DHT22;29629;52.532;13.352;2023-11-18T00:10:22;6.20;99.90
41262;DHT22;29629;52.532;13.352;2023-11-18T00:12:50;6.20;99.90
41262;DHT22;29629;52.532;13.352;2023-11-18T00:15:17;6.30;99.90
41262;DHT22;29629;52.532;13.352;2023-11-18T00:17:47;6.20;99.90
41262;DHT22;29629;52.532;13.352;2023-11-18T00:20:14;6.20;99.90
41262;DHT22;29629;52.532;13.352;2023-11-18T00:22:41;6.30;99.90
41262;DHT22;29629;52.532;13.352;2023-11-18T00:25:10;6.30;99.90
41262;DHT22;29629;52.532;13.352;2023-11-18T00:27:39;6.30;99.90
41262;DHT22;29629;52.532;13.352;2023-11-18T00:30:09;6.30;99.90
41262;DHT22;29629;52.532;13.352;2023-11-18T00:32:36;6.30;99.90
41262;DHT22;29629;52.532;13.352;2023-11-18T00:35:04;6.30;99.90
41262;DHT22;29629;52.532;13.352;2023-11-18T00:37:32;6.30;99.90
41262;DHT22;29629;52.532;13.352;2023-11-18T00:39:59;6.30;99.90
41262;DHT22;29629;52.532;13.352;2023-11-18T00:42:27;6.20;99.90
41262;DHT22;29629;52.532;13.352;2023-11-18T00:44:55;6.20;99.90
41262;DHT22;29629;52.532;13.352;2023-11-18T00:47:23;6.30;99.90
41262;DHT22;29629;52.532;13.352;2023-11-18T00:49:50;6.20;99.90
41262;DHT22;29629;52.532;13.352;2023-11-18T00:52:18;6.20;99.90
41262;DHT22;29629;52.532;13.352;2023-11-18T00:54:45;6.30;99.90
41262;DHT22;29629;52.532;13.352;2023-11-18T00:57:12;6.20;99.90
41262;DHT22;29629;52.532;13.352;2023-11-18T00:59:41;6.30;99.90
41262;DHT22;29629;52.532;13.352;2023-11-18T01:02:09;6.30;99.90
41262;DHT22;29629;52.532;13.352;2023-11-18T01:04:37;6.40;99.90
41262;DHT22;29629;52.532;13.352;2023-11-18T01:07:04;6.20;99.90
41262;DHT22;29629;52.532;13.352;2023-11-18T01:09:31;6.30;99.90
41262;DHT22;29629;52.532;13.352;2023-11-18T01:12:03;6.20;99.90
41262;DHT22;29629;52.532;13.352;2023-11-18T01:14:30;6.20;99.90
41262;DHT22;29629;52.532;13.352;2023-11-18T01:16:57;6.30;99.90
41262;DHT22;29629;52.532;13.352;2023-11-18T01:19:25;6.20;99.90
41262;DHT22;29629;52.532;13.352;2023-11-18T01:21:53;6.30;99.90
41262;DHT22;29629;52.532;13.352;2023-11-18T01:24:21;6.20;99.90
41262;DHT22;29629;52.532;13.352;2023-11-18T01:26:48;6.30;99.90
41262;DHT22;29629;52.532;13.352;2023-11-18T01:29:15;6.20;99.90
41262;DHT22;29629;52.532;13.352;2023-11-18T01:31:43;6.30;99.90
41262;DHT22;29629;52.532;13.352;2023-11-18T01:34:10;6.30;99.90
41262;DHT22;29629;52.532;13.352;2023-11-18T01:36:37;6.30;99.90
41262;DHT22;29629;52.532;13.352;2023-11-18T01:39:06;6.30;99.90
41262;DHT22;29629;52.532;13.352;2023-11-18T01:41:33;6.20;99.90
41262;DHT22;29629;52.532;13.352;2023-11-18T01:44:01;6.30;99.90
41262;DHT22;29629;52.532;13.352;2023-11-18T01:46:30;6.30;99.90
41262;DHT22;29629;52.532;13.352;2023-11-18T01:48:58;6.30;99.90
41262;DHT22;29629;52.532;13.352;2023-11-18T01:51:25;6.30;99.90
41262;DHT22;29629;52.532;13.352;2023-11-18T01:53:52;6.30;99.90
41262;DHT22;29629;52.532;13.352;2023-11-18T01:56:20;6.30;99.90
41262;DHT22;29629;52.532;13.352;2023-11-18T01:58:50;6.20;99.90
41262;DHT22;29629;52.532;13.352;2023-11-18T02:01:18;6.30;99.90
41262;DHT22;29629;52.532;13.352;2023-11-18T02:03:45;6.30;99.90
41262;DHT22;29629;52.532;13.352;2023-11-18T02:06:13;6.30;99.90
41262;DHT22;29629;52.532;13.352;2023-11-18T02:08:42;6.20;99.90
41262;DHT22;29629;52.532;13.352;2023-11-18T02:11:14;6.30;99.90
41262;DHT22;29629;52.532;13.352;2023-11-18T02:13:48;6.30;99.90
41262;DHT22;29629;52.532;13.352;2023-11-18T02:16:15;6.20;99.90
41262;DHT22;29629;52.532;13.352;2023-11-18T02:18:43;6.30;99.90
41262;DHT22;29629;52.532;13.352;2023-11-18T02:21:11;6.20;99.90
41262;DHT22;29629;52.532;13.352;2023-11-18T02:23:40;6.20;99.90
41262;DHT22;29629;52.532;13.352;2023-11-18T02:26:09;6.20;99.90
41262;DHT22;29629;52.532;13.352;2023-11-18T02:28:36;6.30;99.90
41262;DHT22;29629;52.532;13.352;2023-11-18T02:31:16;6.20;99.90
41262;DHT22;29629;52.532;13.352;2023-11-18T02:33:54;6.30;99.90
41262;DHT22;29629;52.532;13.352;2023-11-18T02:36:29;6.30;99.90
41262;DHT22;29629;52.532;13.352;2023-11-18T02:39:04;6.20;99.90
41262;DHT22;29629;52.532;13.352;2023-11-18T02:41:35;6.10;99.90
41262;DHT22;29629;52.532;13.352;2023-11-18T02:44:03;6.10;99.90
41262;DHT22;29629;52.532;13.352;2023-11-18T02:46:34;6.20;99.90
41262;DHT22;29629;52.532;13.352;2023-11-18T02:49:03;6.20;99.90
41262;DHT22;29629;52.532;13.352;2023-11-18T02:51:30;6.20;99.90
41262;DHT22;29629;52.532;13.352;2023-11-18T02:53:59;6.20;99.90
41262;DHT22;29629;52.532;13.352;2023-11-18T02:56:26;6.20;99.90
41262;DHT22;29629;52.532;13.352;2023-11-18T02:58:54;6.20;99.90
41262;DHT22;29629;52.532;13.352;2023-11-18T03:01:21;6.20;99.90
41262;DHT22;29629;52.532;13.352;2023-11-18T03:03:48;6.10;99.90
41262;DHT22;29629;52.532;13.352;2023-11-18T03:06:15;6.10;99.90
41262;DHT22;29629;52.532;13.352;2023-11-18T03:08:42;6.10;99.90
41262;DHT22;29629;52.532;13.352;2023-11-18T03:11:09;6.10;99.90
41262;DHT22;29629;52.532;13.352;2023-11-18T03:13:37;6.10;99.90
41262;DHT22;29629;52.532;13.352;2023-11-18T03:16:08;6.20;99.90
41262;DHT22;29629;52.532;13.352;2023-11-18T03:18:37;6.10;99.90
41262;DHT22;29629;52.532;13.352;2023-11-18T03:21:06;6.00;99.90
41262;DHT22;29629;52.532;13.352;2023-11-18T03:23:33;6.10;99.90
41262;DHT22;29629;52.532;13.352;2023-11-18T03:26:00;6.00;99.90
41262;DHT22;29629;52.532;13.352;2023-11-18T03:28:27;6.00;99.90
41262;DHT22;29629;52.532;13.352;2023-11-18T03:30:54;6.00;99.90
41262;DHT22;29629;52.532;13.352;2023-11-18T03:33:22;6.20;99.90
41262;DHT22;29629;52.532;13.352;2023-11-18T03:35:49;6.10;99.90
41262;DHT22;29629;52.532;13.352;2023-11-18T03:38:16;6.10;99.90
41262;DHT22;29629;52.532;13.352;2023-11-18T03:40:43;6.10;99.90
41262;DHT22;29629;52.532;13.352;2023-11-18T03:43:12;6.10;99.90
41262;DHT22;29629;52.532;13.352;2023-11-18T03:45:39;6.10;99.90
41262;DHT22;29629;52.532;13.352;2023-11-18T03:48:06;6.00;99.90
41262;DHT22;29629;52.532;13.352;2023-11-18T03:50:34;6.00;99.90
41262;DHT22;29629;52.532;13.352;2023-11-18T03:53:01;6.00;99.90
41262;DHT22;29629;52.532;13.352;2023-11-18T03:55:29;6.10;99.90
41262;DHT22;29629;52.532;13.352;2023-11-18T03:57:56;6.10;99.90
41262;DHT22;29629;52.532;13.352;2023-11-18T04:00:23;6.10;99.90
41262;DHT22;29629;52.532;13.352;2023-11-18T04:02:55;6.00;99.90
41262;DHT22;29629;52.532;13.352;2023-11-18T04:05:22;6.00;99.90
41262;DHT22;29629;52.532;13.352;2023-11-18T04:07:50;6.00;99.90
41262;DHT22;29629;52.532;13.352;2023-11-18T04:10:18;6.00;99.90
41262;DHT22;29629;52.532;13.352;2023-11-18T04:12:46;6.00;99.90
41262;DHT22;29629;52.532;13.352;2023-11-18T04:15:14;6.10;99.90
41262;DHT22;29629;52.532;13.352;2023-11-18T04:17:41;6.10;99.90
41262;DHT22;29629;52.532;13.352;2023-11-18T04:20:10;6.00;99.90
41262;DHT22;29629;52.532;13.352;2023-11-18T04:22:39;6.00;99.90
41262;DHT22;29629;52.532;13.352;2023-11-18T04:25:08;5.90;99.90
41262;DHT22;29629;52.532;13.352;2023-11-18T04:27:35;6.00;99.90
41262;DHT22;29629;52.532;13.352;2023-11-18T04:30:03;6.00;99.90
41262;DHT22;29629;52.532;13.352;2023-11-18T04:32:30;6.10;99.90
41262;DHT22;29629;52.532;13.352;2023-11-18T04:34:58;5.90;99.90
41262;DHT22;29629;52.532;13.352;2023-11-18T04:37:25;5.80;99.90
41262;DHT22;29629;52.532;13.352;2023-11-18T04:39:52;5.80;99.90
41262;DHT22;29629;52.532;13.352;2023-11-18T04:42:22;5.80;99.90
41262;DHT22;29629;52.532;13.352;2023-11-18T04:44:49;5.80;99.90
41262;DHT22;29629;52.532;13.352;2023-11-18T04:47:16;5.90;99.90
41262;DHT22;29629;52.532;13.352;2023-11-18T04:49:44;5.90;99.90
41262;DHT22;29629;52.532;13.352;2023-11-18T04:52:11;5.80;99.90
41262;DHT22;29629;52.532;13.352;2023-11-18T04:54:37;5.90;99.90
41262;DHT22;29629;52.532;13.352;2023-11-18T04:57:04;5.90;99.90
41262;DHT22;29629;52.532;13.352;2023-11-18T04:59:35;6.00;99.90
41262;DHT22;29629;52.532;13.352;2023-11-18T05:02:02;6.00;99.90
41262;DHT22;29629;52.532;13.352;2023-11-18T05:04:29;5.90;99.90
41262;DHT22;29629;52.532;13.352;2023-11-18T05:06:56;6.00;99.90
41262;DHT22;29629;52.532;13.352;2023-11-18T05:09:23;6.00;99.90
41262;DHT22;29629;52.532;13.352;2023-11-18T05:11:51;5.90;99.90
41262;DHT22;29629;52.532;13.352;2023-11-18T05:14:18;5.80;99.90
41262;DHT22;29629;52.532;13.352;2023-11-18T05:16:47;5.80;99.90
41262;DHT22;29629;52.532;13.352;2023-11-18T05:19:13;5.80;99.90
41262;DHT22;29629;52.532;13.352;2023-11-18T05:21:42;5.90;99.90
41262;DHT22;29629;52.532;13.352;2023-11-18T05:24:09;5.90;99.90
41262;DHT22;29629;52.532;13.352;2023-11-18T05:26:36;5.90;99.90
41262;DHT22;29629;52.532;13.352;2023-11-18T05:29:03;5.90;99.90
41262;DHT22;29629;52.532;13.352;2023-11-18T05:31:31;6.00;99.90
41262;DHT22;29629;52.532;13.352;2023-11-18T05:34:00;5.90;99.90
41262;DHT22;29629;52.532;13.352;2023-11-18T05:36:28;5.80;99.90
41262;DHT22;29629;52.532;13.352;2023-11-18T05:39:02;5.90;99.90
41262;DHT22;29629;52.532;13.352;2023-11-18T05:41:30;5.90;99.90
41262;DHT22;29629;52.532;13.352;2023-11-18T05:43:57;5.90;99.90
41262;DHT22;29629;52.532;13.352;2023-11-18T05:46:24;5.90;99.90
41262;DHT22;29629;52.532;13.352;2023-11-18T05:48:55;6.00;99.90
41262;DHT22;29629;52.532;13.352;2023-11-18T05:51:25;5.90;99.90
41262;DHT22;29629;52.532;13.352;2023-11-18T05:53:53;5.80;99.90
41262;DHT22;29629;52.532;13.352;2023-11-18T05:56:21;5.90;99.90
41262;DHT22;29629;52.532;13.352;2023-11-18T05:58:48;5.90;99.90
41262;DHT22;29629;52.532;13.352;2023-11-18T06:01:15;5.90;99.90
41262;DHT22;29629;52.532;13.352;2023-11-18T06:03:43;5.80;99.90
41262;DHT22;29629;52.532;13.352;2023-11-18T06:06:14;5.90;99.90
41262;DHT22;29629;52.532;13.352;2023-11-18T06:08:43;5.80;99.90
41262;DHT22;29629;52.532;13.352;2023-11-18T06:11:10;5.80;99.90
41262;DHT22;29629;52.532;13.352;2023-11-18T06:13:41;5.70;99.90
41262;DHT22;29629;52.532;13.352;2023-11-18T06:16:11;5.80;99.90
41262;DHT22;29629;52.532;13.352;2023-11-18T06:18:40;5.80;99.90
41262;DHT22;29629;52.532;13.352;2023-11-18T06:21:11;5.70;99.90
41262;DHT22;29629;52.532;13.352;2023-11-18T06:23:37;5.70;99.90
41262;DHT22;29629;52.532;13.352;2023-11-18T06:26:06;5.70;99.90
41262;DHT22;29629;52.532;13.352;2023-11-18T06:28:36;5.70;99.90
41262;DHT22;29629;52.532;13.352;2023-11-18T06:31:03;5.60;99.90
41262;DHT22;29629;52.532;13.352;2023-11-18T06:33:30;5.70;99.90
41262;DHT22;29629;52.532;13.352;2023-11-18T06:35:57;5.80;99.90
41262;DHT22;29629;52.532;13.352;2023-11-18T06:38:26;5.70;99.90
41262;DHT22;29629;52.532;13.352;2023-11-18T06:40:56;5.60;99.90
41262;DHT22;29629;52.532;13.352;2023-11-18T06:43:25;5.60;99.90
41262;DHT22;29629;52.532;13.352;2023-11-18T06:46:01;5.70;99.90
41262;DHT22;29629;52.532;13.352;2023-11-18T06:48:28;5.70;99.90
41262;DHT22;29629;52.532;13.352;2023-11-18T06:50:55;5.70;99.90
41262;DHT22;29629;52.532;13.352;2023-11-18T06:53:22;5.80;99.90
41262;DHT22;29629;52.532;13.352;2023-11-18T06:55:49;5.70;99.90
41262;DHT22;29629;52.532;13.352;2023-11-18T06:58:15;5.70;99.90
41262;DHT22;29629;52.532;13.352;2023-11-18T07:00:45;5.80;99.90
41262;DHT22;29629;52.532;13.352;2023-11-18T07:03:13;5.60;99.90
41262;DHT22;29629;52.532;13.352;2023-11-18T07:05:40;5.70;99.90
41262;DHT22;29629;52.532;13.352;2023-11-18T07:08:07;5.70;99.90
41262;DHT22;29629;52.532;13.352;2023-11-18T07:10:34;5.70;99.90
41262;DHT22;29629;52.532;13.352;2023-11-18T07:13:03;5.60;99.90
41262;DHT22;29629;52.532;13.352;2023-11-18T07:15:30;5.60;99.90
41262;DHT22;29629;52.532;13.352;2023-11-18T07:17:58;5.60;99.90
41262;DHT22;29629;52.532;13.352;2023-11-18T07:20:24;5.60;99.90
41262;DHT22;29629;52.532;13.352;2023-11-18T07:22:51;5.60;99.90
41262;DHT22;29629;52.532;13.352;2023-11-18T07:25:19;5.60;99.90
41262;DHT22;29629;52.532;13.352;2023-11-18T07:27:46;5.80;99.90
41262;DHT22;29629;52.532;13.352;2023-11-18T07:30:14;5.90;99.90
41262;DHT22;29629;52.532;13.352;2023-11-18T07:32:41;5.80;99.90
41262;DHT22;29629;52.532;13.352;2023-11-18T07:35:09;6.00;99.90
41262;DHT22;29629;52.532;13.352;2023-11-18T07:37:37;5.90;99.90
41262;DHT22;29629;52.532;13.352;2023-11-18T07:40:05;6.00;99.90
41262;DHT22;29629;52.532;13.352;2023-11-18T07:42:32;5.90;99.90
41262;DHT22;29629;52.532;13.352;2023-11-18T07:45:00;6.00;99.90
41262;DHT22;29629;52.532;13.352;2023-11-18T07:47:29;5.80;99.90
41262;DHT22;29629;52.532;13.352;2023-11-18T07:49:58;5.90;99.90
41262;DHT22;29629;52.532;13.352;2023-11-18T07:52:27;5.90;99.90
41262;DHT22;29629;52.532;13.352;2023-11-18T07:54:54;6.00;99.90
41262;DHT22;29629;52.532;13.352;2023-11-18T07:57:22;6.00;99.90
41262;DHT22;29629;52.532;13.352;2023-11-18T07:59:53;6.00;99.90
41262;DHT22;29629;52.532;13.352;2023-11-18T08:02:20;6.00;99.90
41262;DHT22;29629;52.532;13.352;2023-11-18T08:04:47;6.10;99.90
41262;DHT22;29629;52.532;13.352;2023-11-18T08:07:14;6.10;99.90
41262;DHT22;29629;52.532;13.352;2023-11-18T08:09:42;6.10;99.90
41262;DHT22;29629;52.532;13.352;2023-11-18T08:12:10;6.00;99.90
41262;DHT22;29629;52.532;13.352;2023-11-18T08:14:37;6.10;99.90
41262;DHT22;29629;52.532;13.352;2023-11-18T08:17:04;6.20;99.90
41262;DHT22;29629;52.532;13.352;2023-11-18T08:19:31;6.20;99.90
41262;DHT22;29629;52.532;13.352;2023-11-18T08:21:59;6.20;99.90
41262;DHT22;29629;52.532;13.352;2023-11-18T08:24:27;6.30;99.90
41262;DHT22;29629;52.532;13.352;2023-11-18T08:26:56;6.30;99.90
41262;DHT22;29629;52.532;13.352;2023-11-18T08:29:23;6.30;99.90
41262;DHT22;29629;52.532;13.352;2023-11-18T08:31:53;6.40;99.90
41262;DHT22;29629;52.532;13.352;2023-11-18T08:34:21;6.40;99.90
41262;DHT22;29629;52.532;13.352;2023-11-18T08:36:51;6.50;99.90
41262;DHT22;29629;52.532;13.352;2023-11-18T08:39:18;6.50;99.90
41262;DHT22;29629;52.532;13.352;2023-11-18T08:41:48;6.50;99.90
41262;DHT22;29629;52.532;13.352;2023-11-18T08:44:17;6.50;99.90
41262;DHT22;29629;52.532;13.352;2023-11-18T08:46:44;6.60;99.90
41262;DHT22;29629;52.532;13.352;2023-11-18T08:49:12;6.60;99.90
41262;DHT22;29629;52.532;13.352;2023-11-18T08:51:39;6.50;99.90
41262;DHT22;29629;52.532;13.352;2023-11-18T08:54:07;6.60;99.90
41262;DHT22;29629;52.532;13.352;2023-11-18T08:56:48;6.60;99.90
41262;DHT22;29629;52.532;13.352;2023-11-18T08:59:19;6.60;99.90
41262;DHT22;29629;52.532;13.352;2023-11-18T09:01:51;6.60;99.90
41262;DHT22;29629;52.532;13.352;2023-11-18T09:04:21;6.50;99.90
41262;DHT22;29629;52.532;13.352;2023-11-18T09:06:49;6.60;99.90
41262;DHT22;29629;52.532;13.352;2023-11-18T09:09:17;6.50;99.90
41262;DHT22;29629;52.532;13.352;2023-11-18T09:11:52;6.50;99.90
41262;DHT22;29629;52.532;13.352;2023-11-18T09:14:21;6.40;99.90
41262;DHT22;29629;52.532;13.352;2023-11-18T09:16:50;6.60;99.90
41262;DHT22;29629;52.532;13.352;2023-11-18T09:19:17;6.70;99.90
41262;DHT22;29629;52.532;13.352;2023-11-18T09:21:45;6.60;99.90
41262;DHT22;29629;52.532;13.352;2023-11-18T09:24:12;6.70;99.90
41262;DHT22;29629;52.532;13.352;2023-11-18T09:26:40;6.60;99.90
41262;DHT22;29629;52.532;13.352;2023-11-18T09:29:09;6.70;99.90
41262;DHT22;29629;52.532;13.352;2023-11-18T09:31:38;6.60;99.90
41262;DHT22;29629;52.532;13.352;2023-11-18T09:34:07;6.80;99.90
41262;DHT22;29629;52.532;13.352;2023-11-18T09:36:41;6.70;99.90
41262;DHT22;29629;52.532;13.352;2023-11-18T09:39:08;6.80;99.90
41262;DHT22;29629;52.532;13.352;2023-11-18T09:41:42;6.90;99.90
41262;DHT22;29629;52.532;13.352;2023-11-18T09:44:09;6.90;99.90
41262;DHT22;29629;52.532;13.352;2023-11-18T09:46:41;6.90;99.90
41262;DHT22;29629;52.532;13.352;2023-11-18T09:49:17;7.00;99.90
41262;DHT22;29629;52.532;13.352;2023-11-18T09:51:57;6.90;99.90
41262;DHT22;29629;52.532;13.352;2023-11-18T09:54:30;7.00;99.90
41262;DHT22;29629;52.532;13.352;2023-11-18T09:57:02;6.90;99.90
41262;DHT22;29629;52.532;13.352;2023-11-18T09:59:42;6.80;99.90
41262;DHT22;29629;52.532;13.352;2023-11-18T10:02:12;6.80;99.90
41262;DHT22;29629;52.532;13.352;2023-11-18T10:04:40;6.90;99.90
41262;DHT22;29629;52.532;13.352;2023-11-18T10:07:08;6.80;99.90
41262;DHT22;29629;52.532;13.352;2023-11-18T10:09:36;6.90;99.90
41262;DHT22;29629;52.532;13.352;2023-11-18T10:12:05;7.00;99.90
41262;DHT22;29629;52.532;13.352;2023-11-18T10:14:32;7.10;99.90
41262;DHT22;29629;52.532;13.352;2023-11-18T10:17:03;7.20;99.90
41262;DHT22;29629;52.532;13.352;2023-11-18T10:19:51;7.20;99.90
41262;DHT22;29629;52.532;13.352;2023-11-18T10:22:24;7.10;99.90
41262;DHT22;29629;52.532;13.352;2023-11-18T10:24:53;7.10;99.90
41262;DHT22;29629;52.532;13.352;2023-11-18T10:27:22;7.10;99.90
41262;DHT22;29629;52.532;13.352;2023-11-18T10:29:54;7.10;99.90
41262;DHT22;29629;52.532;13.352;2023-11-18T10:32:21;7.10;99.90
41262;DHT22;29629;52.532;13.352;2023-11-18T10:34:55;7.10;99.90
41262;DHT22;29629;52.532;13.352;2023-11-18T10:37:22;7.30;99.90
41262;DHT22;29629;52.532;13.352;2023-11-18T10:39:49;7.20;99.90
41262;DHT22;29629;52.532;13.352;2023-11-18T10:42:17;7.10;99.90
41262;DHT22;29629;52.532;13.352;2023-11-18T10:44:58;7.00;99.90
41262;DHT22;29629;52.532;13.352;2023-11-18T10:47:27;7.00;99.90
41262;DHT22;29629;52.532;13.352;2023-11-18T10:49:56;7.10;99.90
41262;DHT22;29629;52.532;13.352;2023-11-18T10:52:24;7.00;99.90
41262;DHT22;29629;52.532;13.352;2023-11-18T10:54:52;7.00;99.90
41262;DHT22;29629;52.532;13.352;2023-11-18T10:57:20;6.90;99.90
41262;DHT22;29629;52.532;13.352;2023-11-18T10:59:59;6.90;99.90
41262;DHT22;29629;52.532;13.352;2023-11-18T11:02:30;6.90;99.90
41262;DHT22;29629;52.532;13.352;2023-11-18T11:05:02;7.00;99.90
41262;DHT22;29629;52.532;13.352;2023-11-18T11:07:29;7.00;99.90
41262;DHT22;29629;52.532;13.352;2023-11-18T11:09:59;7.10;99.90
41262;DHT22;29629;52.532;13.352;2023-11-18T11:12:33;7.10;99.90
41262;DHT22;29629;52.532;13.352;2023-11-18T11:15:08;7.10;99.90
41262;DHT22;29629;52.532;13.352;2023-11-18T11:17:51;7.10;99.90
41262;DHT22;29629;52.532;13.352;2023-11-18T11:20:22;7.20;99.90
41262;DHT22;29629;52.532;13.352;2023-11-18T11:23:05;7.10;99.90
41262;DHT22;29629;52.532;13.352;2023-11-18T11:25:41;7.20;99.90
41262;DHT22;29629;52.532;13.352;2023-11-18T11:28:14;7.20;99.90
41262;DHT22;29629;52.532;13.352;2023-11-18T11:30:50;7.10;99.90
41262;DHT22;29629;52.532;13.352;2023-11-18T11:33:26;7.20;99.90
41262;DHT22;29629;52.532;13.352;2023-11-18T11:35:56;6.70;99.90
41262;DHT22;29629;52.532;13.352;2023-11-18T11:38:27;6.50;99.90
41262;DHT22;29629;52.532;13.352;2023-11-18T11:40:57;6.50;99.90
41262;DHT22;29629;52.532;13.352;2023-11-18T11:43:26;6.40;99.90
41262;DHT22;29629;52.532;13.352;2023-11-18T11:45:54;6.50;99.90
41262;DHT22;29629;52.532;13.352;2023-11-18T11:48:23;6.60;99.90
41262;DHT22;29629;52.532;13.352;2023-11-18T11:51:22;6.70;99.90
41262;DHT22;29629;52.532;13.352;2023-11-18T11:53:55;6.60;99.90
41262;DHT22;29629;52.532;13.352;2023-11-18T11:56:39;6.60;99.90
41262;DHT22;29629;52.532;13.352;2023-11-18T11:59:06;7.00;99.90
41262;DHT22;29629;52.532;13.352;2023-11-18T12:01:37;7.10;99.90
41262;DHT22;29629;52.532;13.352;2023-11-18T12:04:05;6.90;99.90
41262;DHT22;29629;52.532;13.352;2023-11-18T12:06:41;7.10;99.90
41262;DHT22;29629;52.532;13.352;2023-11-18T12:09:10;7.00;99.90
41262;DHT22;29629;52.532;13.352;2023-11-18T12:11:38;7.10;99.90
41262;DHT22;29629;52.532;13.352;2023-11-18T12:14:08;6.80;99.90
41262;DHT22;29629;52.532;13.352;2023-11-18T12:17:02;6.90;99.90
41262;DHT22;29629;52.532;13.352;2023-11-18T12:19:35;7.10;99.90
41262;DHT22;29629;52.532;13.352;2023-11-18T12:22:14;6.90;99.90
41262;DHT22;29629;52.532;13.352;2023-11-18T12:28:12;6.90;99.90
41262;DHT22;29629;52.532;13.352;2023-11-18T12:30:42;6.80;99.90
41262;DHT22;29629;52.532;13.352;2023-11-18T12:33:17;6.90;99.90
41262;DHT22;29629;52.532;13.352;2023-11-18T12:35:51;7.10;99.90
41262;DHT22;29629;52.532;13.352;2023-11-18T12:41:34;6.60;99.90
41262;DHT22;29629;52.532;13.352;2023-11-18T12:44:14;6.60;99.90
41262;DHT22;29629;52.532;13.352;2023-11-18T12:46:50;6.90;99.90
41262;DHT22;29629;52.532;13.352;2023-11-18T12:49:19;6.70;99.90
41262;DHT22;29629;52.532;13.352;2023-11-18T12:51:49;6.60;99.90
41262;DHT22;29629;52.532;13.352;2023-11-18T12:54:19;6.60;99.90
41262;DHT22;29629;52.532;13.352;2023-11-18T12:56:47;6.70;99.90
41262;DHT22;29629;52.532;13.352;2023-11-18T12:59:16;6.80;99.90
41262;DHT22;29629;52.532;13.352;2023-11-18T13:01:44;7.00;99.90
41262;DHT22;29629;52.532;13.352;2023-11-18T13:04:17;7.00;99.90
41262;DHT22;29629;52.532;13.352;2023-11-18T13:06:45;7.00;99.90
41262;DHT22;29629;52.532;13.352;2023-11-18T13:09:14;7.10;99.90
41262;DHT22;29629;52.532;13.352;2023-11-18T13:11:53;7.20;99.90
41262;DHT22;29629;52.532;13.352;2023-11-18T13:14:23;7.30;99.90
41262;DHT22;29629;52.532;13.352;2023-11-18T13:16:52;7.20;99.90
41262;DHT22;29629;52.532;13.352;2023-11-18T13:19:25;7.50;99.90
41262;DHT22;29629;52.532;13.352;2023-11-18T13:21:56;7.40;99.90
41262;DHT22;29629;52.532;13.352;2023-11-18T13:24:24;7.60;99.90
41262;DHT22;29629;52.532;13.352;2023-11-18T13:26:54;7.40;99.90
41262;DHT22;29629;52.532;13.352;2023-11-18T13:29:22;7.30;99.90
41262;DHT22;29629;52.532;13.352;2023-11-18T13:31:50;7.30;99.90
41262;DHT22;29629;52.532;13.352;2023-11-18T13:34:17;7.20;99.90
41262;DHT22;29629;52.532;13.352;2023-11-18T13:36:46;7.20;99.90
41262;DHT22;29629;52.532;13.352;2023-11-18T13:39:16;7.30;99.90
41262;DHT22;29629;52.532;13.352;2023-11-18T13:41:44;7.40;99.90
41262;DHT22;29629;52.532;13.352;2023-11-18T13:44:13;7.40;99.90
41262;DHT22;29629;52.532;13.352;2023-11-18T13:46:41;7.40;99.90
41262;DHT22;29629;52.532;13.352;2023-11-18T13:49:08;7.40;99.90
41262;DHT22;29629;52.532;13.352;2023-11-18T13:51:35;7.30;99.90
41262;DHT22;29629;52.532;13.352;2023-11-18T13:54:03;7.20;99.90
41262;DHT22;29629;52.532;13.352;2023-11-18T13:56:32;7.10;99.90
41262;DHT22;29629;52.532;13.352;2023-11-18T13:58:59;7.10;99.90
41262;DHT22;29629;52.532;13.352;2023-11-18T14:01:27;7.00;99.90
41262;DHT22;29629;52.532;13.352;2023-11-18T14:03:54;6.90;99.90
41262;DHT22;29629;52.532;13.352;2023-11-18T14:06:27;6.80;99.90
41262;DHT22;29629;52.532;13.352;2023-11-18T14:08:54;6.80;99.90
41262;DHT22;29629;52.532;13.352;2023-11-18T14:11:21;6.70;99.90
41262;DHT22;29629;52.532;13.352;2023-11-18T14:13:49;6.60;99.90
41262;DHT22;29629;52.532;13.352;2023-11-18T14:16:19;6.50;99.90
41262;DHT22;29629;52.532;13.352;2023-11-18T14:18:50;6.50;99.90
41262;DHT22;29629;52.532;13.352;2023-11-18T14:21:17;6.40;99.90
41262;DHT22;29629;52.532;13.352;2023-11-18T14:23:45;6.30;99.90
41262;DHT22;29629;52.532;13.352;2023-11-18T14:26:12;6.30;99.90
41262;DHT22;29629;52.532;13.352;2023-11-18T14:28:39;6.30;99.90
41262;DHT22;29629;52.532;13.352;2023-11-18T14:31:08;6.20;99.90
41262;DHT22;29629;52.532;13.352;2023-11-18T14:33:36;6.20;99.90
41262;DHT22;29629;52.532;13.352;2023-11-18T14:36:05;6.10;99.90
41262;DHT22;29629;52.532;13.352;2023-11-18T14:38:34;6.20;99.90
41262;DHT22;29629;52.532;13.352;2023-11-18T14:41:02;6.20;99.90
41262;DHT22;29629;52.532;13.352;2023-11-18T14:43:30;6.20;99.90
41262;DHT22;29629;52.532;13.352;2023-11-18T14:45:57;6.20;99.90
41262;DHT22;29629;52.532;13.352;2023-11-18T14:48:24;6.20;99.90
41262;DHT22;29629;52.532;13.352;2023-11-18T14:50:51;6.20;99.90
41262;DHT22;29629;52.532;13.352;2023-11-18T14:53:19;6.30;99.90
41262;DHT22;29629;52.532;13.352;2023-11-18T14:55:46;6.20;99.90
41262;DHT22;29629;52.532;13.352;2023-11-18T14:58:13;6.20;99.90
41262;DHT22;29629;52.532;13.352;2023-11-18T15:00:40;6.20;99.90
41262;DHT22;29629;52.532;13.352;2023-11-18T15:03:08;6.30;99.90
41262;DHT22;29629;52.532;13.352;2023-11-18T15:05:35;6.20;99.90
41262;DHT22;29629;52.532;13.352;2023-11-18T15:08:04;6.20;99.90
41262;DHT22;29629;52.532;13.352;2023-11-18T15:10:36;6.20;99.90
41262;DHT22;29629;52.532;13.352;2023-11-18T15:13:05;6.20;99.90
41262;DHT22;29629;52.532;13.352;2023-11-18T15:15:32;6.20;99.90
41262;DHT22;29629;52.532;13.352;2023-11-18T15:18:00;6.10;99.90
41262;DHT22;29629;52.532;13.352;2023-11-18T15:20:29;6.10;99.90
41262;DHT22;29629;52.532;13.352;2023-11-18T15:22:56;6.10;99.90
41262;DHT22;29629;52.532;13.352;2023-11-18T15:25:23;6.10;99.90
41262;DHT22;29629;52.532;13.352;2023-11-18T15:27:51;6.10;99.90
41262;DHT22;29629;52.532;13.352;2023-11-18T15:30:18;6.10;99.90
41262;DHT22;29629;52.532;13.352;2023-11-18T15:32:47;6.00;99.90
41262;DHT22;29629;52.532;13.352;2023-11-18T15:35:14;6.00;99.90
41262;DHT22;29629;52.532;13.352;2023-11-18T15:37:43;6.00;99.90
41262;DHT22;29629;52.532;13.352;2023-11-18T15:40:13;6.00;99.90
41262;DHT22;29629;52.532;13.352;2023-11-18T15:42:41;6.00;99.90
41262;DHT22;29629;52.532;13.352;2023-11-18T15:45:11;5.90;99.90
41262;DHT22;29629;52.532;13.352;2023-11-18T15:47:38;5.90;99.90